Terminal Aerodrome Forecast
Issued by NWS Burlington, VT

Home | Current Version | Previous Version | Text Only | Print | Product List | Glossary On
Versions: 1 2 3 4 5 6 7 8 9 10 11 12 13
000
FTUS41 KBTV 062320
TAFBTV
TAF
KBTV 062320Z 0700/0724 19011KT P6SM SKC
     FM071100 18008KT P6SM SCT060 BKN100
     FM071400 19012KT P6SM VCSH SCT025 OVC040=

USA.gov is the U.S. government's official web portal to all federal, state and local government web resources and services.